createdAt,value
2018-12-20T00:01:15.487Z,25.10
2018-12-20T00:03:43.938Z,25.83
2018-12-20T00:06:12.453Z,25.77
2018-12-20T00:08:40.884Z,26.17
2018-12-20T00:11:09.444Z,26.00
2018-12-20T00:13:38.032Z,25.53
2018-12-20T00:16:06.519Z,24.37
2018-12-20T00:18:35.321Z,24.03
2018-12-20T00:21:03.868Z,25.67
2018-12-20T00:23:32.334Z,26.50
2018-12-20T00:26:00.886Z,24.70
2018-12-20T00:28:29.408Z,24.93
2018-12-20T00:30:57.973Z,26.57
2018-12-20T00:33:26.886Z,25.67
2018-12-20T00:35:55.413Z,25.13
2018-12-20T00:38:23.879Z,24.77
2018-12-20T00:40:52.836Z,24.03
2018-12-20T00:43:21.386Z,24.67
2018-12-20T00:45:49.908Z,23.80
2018-12-20T00:48:18.441Z,24.33
2018-12-20T00:50:46.935Z,23.33
2018-12-20T00:53:15.776Z,23.40
2018-12-20T00:55:44.256Z,21.97
2018-12-20T00:58:12.813Z,23.27
2018-12-20T01:00:41.831Z,23.33
2018-12-20T01:03:10.460Z,23.40
2018-12-20T01:05:39.054Z,24.47
2018-12-20T01:08:07.644Z,23.43
2018-12-20T01:10:36.368Z,23.23
2018-12-20T01:13:04.947Z,22.43
2018-12-20T01:15:33.681Z,22.93
2018-12-20T01:18:02.159Z,21.97
2018-12-20T01:20:30.825Z,23.13
2018-12-20T01:22:59.598Z,23.50
2018-12-20T01:25:28.136Z,24.20
2018-12-20T01:27:57.538Z,22.97
2018-12-20T01:30:26.517Z,23.33
2018-12-20T01:32:55.264Z,23.93
2018-12-20T01:35:23.753Z,23.53
2018-12-20T01:37:52.422Z,24.43
2018-12-20T01:40:21.119Z,23.73
2018-12-20T01:42:50.869Z,24.53
2018-12-20T01:45:19.590Z,25.57
2018-12-20T01:47:48.436Z,25.30
2018-12-20T01:50:17.812Z,25.63
2018-12-20T01:52:46.242Z,25.43
2018-12-20T01:55:15.168Z,25.33
2018-12-20T01:57:43.955Z,25.77
2018-12-20T02:00:12.691Z,25.67
2018-12-20T02:02:41.254Z,25.90
2018-12-20T02:05:09.809Z,26.30
2018-12-20T02:07:38.795Z,25.83
2018-12-20T02:10:07.396Z,25.23
2018-12-20T02:12:36.091Z,25.03
2018-12-20T02:15:06.722Z,25.13
2018-12-20T02:17:35.605Z,24.97
2018-12-20T02:20:05.102Z,25.97
2018-12-20T02:22:34.035Z,25.57
2018-12-20T02:25:02.909Z,25.30
2018-12-20T02:27:31.407Z,25.80
2018-12-20T02:29:59.987Z,25.37
2018-12-20T02:32:28.467Z,25.17
2018-12-20T02:34:56.955Z,26.73
2018-12-20T02:37:25.393Z,25.60
2018-12-20T02:39:53.980Z,24.63
2018-12-20T02:42:22.485Z,25.77
2018-12-20T02:44:51.034Z,25.63
2018-12-20T02:47:22.098Z,25.57
2018-12-20T02:49:50.754Z,25.03
2018-12-20T02:52:19.240Z,26.60
2018-12-20T02:54:47.680Z,26.80
2018-12-20T02:57:16.192Z,25.73
2018-12-20T02:59:44.689Z,26.50
2018-12-20T03:02:13.244Z,27.30
2018-12-20T03:04:41.823Z,26.23
2018-12-20T03:07:10.535Z,26.97
2018-12-20T03:09:39.148Z,26.97
2018-12-20T03:12:08.168Z,26.20
2018-12-20T03:14:36.974Z,26.87
2018-12-20T03:17:07.319Z,26.17
2018-12-20T03:19:35.972Z,26.73
2018-12-20T03:22:04.690Z,26.10
2018-12-20T03:24:33.761Z,27.13
2018-12-20T03:27:02.483Z,27.87
2018-12-20T03:29:31.517Z,27.53
2018-12-20T03:32:00.181Z,26.73
2018-12-20T03:34:28.822Z,27.67
2018-12-20T03:36:57.575Z,27.73
2018-12-20T03:39:26.114Z,26.77
2018-12-20T03:41:54.588Z,28.03
2018-12-20T03:44:23.159Z,27.30
2018-12-20T03:46:51.721Z,27.23
2018-12-20T03:49:20.259Z,27.00
2018-12-20T03:51:49.206Z,27.03
2018-12-20T03:54:17.754Z,26.30
2018-12-20T03:56:46.485Z,27.33
2018-12-20T03:59:15.011Z,27.37
2018-12-20T04:01:43.621Z,28.80
2018-12-20T04:04:12.275Z,27.23
2018-12-20T04:06:40.755Z,26.87
2018-12-20T04:09:09.195Z,27.70
2018-12-20T04:11:37.967Z,27.83
2018-12-20T04:14:06.524Z,28.10
2018-12-20T04:16:35.218Z,28.23
2018-12-20T04:19:04.167Z,27.63
2018-12-20T04:21:32.808Z,28.67
2018-12-20T04:24:01.590Z,28.80
2018-12-20T04:26:30.324Z,28.07
2018-12-20T04:28:58.997Z,29.07
2018-12-20T04:31:27.645Z,28.60
2018-12-20T04:33:56.926Z,28.07
2018-12-20T04:36:25.860Z,28.37
2018-12-20T04:38:56.412Z,27.93
2018-12-20T04:41:25.962Z,27.23
2018-12-20T04:43:54.856Z,29.50
2018-12-20T04:46:23.745Z,27.67
2018-12-20T04:48:52.534Z,28.13
2018-12-20T04:51:21.131Z,28.20
2018-12-20T04:53:49.673Z,28.40
2018-12-20T04:56:18.636Z,28.30
2018-12-20T04:58:47.317Z,32.73
2018-12-20T05:01:15.932Z,34.23
2018-12-20T05:03:44.494Z,37.20
2018-12-20T05:06:13.001Z,34.97
2018-12-20T05:08:41.781Z,35.17
2018-12-20T05:11:10.315Z,33.67
2018-12-20T05:13:38.772Z,32.60
2018-12-20T05:16:07.224Z,35.03
2018-12-20T05:18:36.819Z,45.93
2018-12-20T05:21:05.673Z,30.97
2018-12-20T05:23:34.643Z,30.50
2018-12-20T05:26:03.375Z,29.40
2018-12-20T05:28:32.153Z,29.53
2018-12-20T05:31:00.772Z,29.47
2018-12-20T05:33:29.541Z,30.13
2018-12-20T05:35:58.012Z,29.57
2018-12-20T05:38:26.551Z,29.47
2018-12-20T05:40:55.768Z,35.90
2018-12-20T05:43:24.295Z,31.33
2018-12-20T05:45:53.127Z,29.37
2018-12-20T05:48:22.706Z,31.07
2018-12-20T05:50:51.268Z,30.67
2018-12-20T05:53:19.974Z,30.73
2018-12-20T05:55:48.782Z,30.80
2018-12-20T05:58:17.631Z,32.13
2018-12-20T06:00:46.627Z,29.93
2018-12-20T06:03:15.235Z,31.83
2018-12-20T06:05:43.757Z,31.23
2018-12-20T06:08:12.523Z,31.50
2018-12-20T06:10:41.222Z,30.30
2018-12-20T06:13:09.978Z,31.93
2018-12-20T06:15:39.131Z,31.00
2018-12-20T06:18:07.954Z,30.60
2018-12-20T06:20:36.720Z,30.97
2018-12-20T06:23:05.259Z,29.40
2018-12-20T06:25:34.211Z,30.93
2018-12-20T06:28:02.635Z,28.90
2018-12-20T06:30:31.110Z,30.37
2018-12-20T06:32:59.559Z,29.37
2018-12-20T06:35:29.719Z,31.23
2018-12-20T06:37:58.866Z,30.60
2018-12-20T06:40:27.522Z,29.73
2018-12-20T06:42:55.964Z,30.67
2018-12-20T06:45:24.447Z,29.80
2018-12-20T06:47:52.909Z,30.07
2018-12-20T06:50:21.335Z,70.53
2018-12-20T06:52:49.836Z,39.53
2018-12-20T06:55:19.062Z,32.73
2018-12-20T06:57:47.490Z,32.53
2018-12-20T07:00:15.965Z,32.13
2018-12-20T07:02:44.425Z,31.03
2018-12-20T07:05:12.836Z,29.97
2018-12-20T07:07:41.327Z,31.20
2018-12-20T07:10:09.748Z,30.20
2018-12-20T07:12:38.691Z,31.67
2018-12-20T07:15:10.613Z,32.87
2018-12-20T07:17:39.044Z,32.50
2018-12-20T07:20:07.811Z,33.03
2018-12-20T07:22:36.432Z,32.43
2018-12-20T07:25:06.695Z,32.50
2018-12-20T07:27:36.405Z,32.47
2018-12-20T07:30:09.715Z,33.40
2018-12-20T07:32:38.204Z,33.97
2018-12-20T07:35:07.580Z,33.60
2018-12-20T07:37:36.121Z,34.40
2018-12-20T07:40:07.478Z,34.33
2018-12-20T07:42:35.988Z,39.70
2018-12-20T07:45:05.701Z,90.87
2018-12-20T07:47:34.268Z,38.80
2018-12-20T07:50:02.854Z,34.03
2018-12-20T07:52:31.658Z,32.93
2018-12-20T07:55:00.374Z,31.83
2018-12-20T07:57:28.856Z,32.90
2018-12-20T07:59:58.092Z,33.87
2018-12-20T08:02:26.525Z,33.03
2018-12-20T08:04:55.031Z,33.37
2018-12-20T08:07:24.006Z,34.37
2018-12-20T08:09:52.434Z,34.43
2018-12-20T08:12:20.937Z,35.10
2018-12-20T08:14:49.491Z,33.37
2018-12-20T08:17:17.965Z,34.60
2018-12-20T08:19:46.480Z,34.33
2018-12-20T08:22:14.930Z,37.07
2018-12-20T08:24:43.636Z,36.30
2018-12-20T08:27:12.119Z,38.10
2018-12-20T08:29:40.845Z,38.73
2018-12-20T08:32:09.300Z,38.70
2018-12-20T08:34:37.862Z,38.70
2018-12-20T08:37:06.316Z,37.03
2018-12-20T08:39:34.752Z,37.00
2018-12-20T08:42:03.235Z,36.23
2018-12-20T08:44:31.956Z,38.50
2018-12-20T08:47:02.194Z,44.03
2018-12-20T08:49:30.741Z,38.60
2018-12-20T08:52:00.506Z,37.80
2018-12-20T08:54:28.955Z,39.47
2018-12-20T08:56:57.446Z,37.97
2018-12-20T08:59:25.896Z,39.70
2018-12-20T09:01:55.363Z,41.67
2018-12-20T09:04:24.047Z,41.57
2018-12-20T09:06:52.503Z,40.63
2018-12-20T09:09:21.144Z,41.33
2018-12-20T09:11:49.860Z,40.57
2018-12-20T09:14:18.305Z,41.37
2018-12-20T09:16:47.017Z,41.73
2018-12-20T09:19:15.502Z,41.30
2018-12-20T09:21:44.245Z,39.20
2018-12-20T09:24:12.697Z,42.27
2018-12-20T09:26:41.188Z,42.27
2018-12-20T09:29:09.632Z,41.87
2018-12-20T09:31:38.088Z,42.63
2018-12-20T09:34:06.603Z,41.10
2018-12-20T09:36:35.065Z,42.13
2018-12-20T09:39:07.132Z,41.87
2018-12-20T09:41:35.540Z,41.60
2018-12-20T09:44:04.310Z,41.80
2018-12-20T09:46:34.708Z,41.33
2018-12-20T09:49:03.421Z,43.10
2018-12-20T09:51:32.742Z,42.13
2018-12-20T09:54:01.374Z,42.20
2018-12-20T09:56:29.812Z,42.40
2018-12-20T09:58:58.272Z,41.57
2018-12-20T10:01:26.720Z,43.33
2018-12-20T10:03:55.945Z,41.90
2018-12-20T10:06:24.901Z,42.30
2018-12-20T10:08:53.427Z,90.73
2018-12-20T10:11:22.076Z,44.67
2018-12-20T10:13:51.646Z,45.13
2018-12-20T10:16:20.136Z,46.67
2018-12-20T10:18:48.552Z,43.47
2018-12-20T10:21:16.987Z,42.93
2018-12-20T10:23:45.528Z,42.63
2018-12-20T10:26:13.984Z,44.23
2018-12-20T10:28:42.432Z,44.03
2018-12-20T10:31:10.918Z,43.27
2018-12-20T10:33:40.564Z,44.73
2018-12-20T10:36:09.065Z,44.90
2018-12-20T10:38:37.569Z,44.70
2018-12-20T10:41:06.245Z,42.83
2018-12-20T10:43:34.660Z,43.10
2018-12-20T10:46:03.156Z,43.17
2018-12-20T10:48:31.851Z,44.03
2018-12-20T10:51:00.320Z,42.20
2018-12-20T10:53:28.825Z,42.93
2018-12-20T10:55:57.273Z,46.00
2018-12-20T10:58:25.717Z,42.30
2018-12-20T11:00:59.775Z,43.17
2018-12-20T11:03:34.504Z,42.23
2018-12-20T11:06:05.775Z,44.83
2018-12-20T11:08:36.300Z,45.60
2018-12-20T11:11:09.319Z,44.47
2018-12-20T11:13:37.748Z,82.67
2018-12-20T11:16:06.365Z,53.77
2018-12-20T11:18:35.123Z,42.53
2018-12-20T11:21:03.568Z,43.30
2018-12-20T11:23:32.013Z,42.60
2018-12-20T11:26:02.148Z,41.50
2018-12-20T11:28:30.613Z,43.80
2018-12-20T11:30:59.079Z,43.43
2018-12-20T11:33:28.072Z,41.67
2018-12-20T11:35:56.556Z,42.90
2018-12-20T11:38:24.990Z,43.43
2018-12-20T11:40:54.646Z,42.00
2018-12-20T11:43:23.331Z,43.83
2018-12-20T11:45:51.774Z,42.90
2018-12-20T11:48:20.270Z,42.83
2018-12-20T11:50:48.708Z,43.57
2018-12-20T11:53:17.178Z,44.50
2018-12-20T11:55:45.662Z,44.10
2018-12-20T11:58:14.091Z,43.93
2018-12-20T12:00:42.775Z,44.20
2018-12-20T12:03:11.268Z,43.70
2018-12-20T12:05:40.050Z,43.03
2018-12-20T12:08:08.499Z,43.13
2018-12-20T12:10:37.009Z,44.33
2018-12-20T12:13:05.447Z,44.27
2018-12-20T12:15:33.907Z,42.40
2018-12-20T12:18:02.430Z,84.40
2018-12-20T12:20:30.904Z,47.87
2018-12-20T12:22:59.352Z,44.67
2018-12-20T12:25:28.020Z,45.53
2018-12-20T12:27:56.472Z,44.17
2018-12-20T12:30:25.463Z,44.83
2018-12-20T12:32:53.960Z,44.73
2018-12-20T12:35:22.464Z,45.27
2018-12-20T12:37:51.185Z,44.87
2018-12-20T12:40:19.659Z,43.90
2018-12-20T12:42:48.108Z,44.47
2018-12-20T12:45:16.526Z,46.03
2018-12-20T12:47:50.515Z,45.47
2018-12-20T12:50:19.114Z,45.67
2018-12-20T12:52:47.570Z,45.10
2018-12-20T12:55:16.080Z,47.23
2018-12-20T12:57:44.501Z,47.60
2018-12-20T13:00:15.244Z,46.50
2018-12-20T13:02:43.831Z,48.50
2018-12-20T13:05:12.540Z,48.43
2018-12-20T13:07:41.199Z,48.33
2018-12-20T13:10:09.663Z,48.10
2018-12-20T13:12:38.112Z,49.63
2018-12-20T13:15:09.961Z,50.00
2018-12-20T13:17:38.438Z,48.23
2018-12-20T13:20:08.932Z,49.83
2018-12-20T13:22:37.353Z,49.43
2018-12-20T13:25:06.383Z,47.87
2018-12-20T13:27:34.848Z,47.60
2018-12-20T13:30:06.199Z,49.03
2018-12-20T13:32:34.703Z,48.73
2018-12-20T13:35:03.204Z,52.20
2018-12-20T13:37:31.903Z,60.83
2018-12-20T13:40:00.580Z,50.67
2018-12-20T13:42:28.968Z,47.57
2018-12-20T13:44:57.420Z,49.87
2018-12-20T13:47:25.868Z,49.07
2018-12-20T13:49:54.326Z,48.47
2018-12-20T13:52:22.821Z,46.60
2018-12-20T13:54:51.266Z,48.17
2018-12-20T13:57:19.668Z,48.23
2018-12-20T13:59:48.180Z,48.03
2018-12-20T14:02:16.660Z,48.90
2018-12-20T14:04:45.207Z,49.30
2018-12-20T14:07:13.689Z,47.97
2018-12-20T14:09:42.130Z,47.20
2018-12-20T14:12:10.735Z,47.77
2018-12-20T14:14:39.200Z,46.97
2018-12-20T14:17:07.684Z,46.20
2018-12-20T14:19:36.140Z,46.80
2018-12-20T14:22:04.636Z,100.83
2018-12-20T14:24:33.090Z,57.70
2018-12-20T14:27:01.528Z,47.87
2018-12-20T14:29:30.016Z,46.57
2018-12-20T14:31:58.448Z,46.50
2018-12-20T14:34:26.934Z,47.57
2018-12-20T14:36:55.423Z,48.03
2018-12-20T14:39:23.879Z,50.53
2018-12-20T14:41:52.334Z,50.17
2018-12-20T14:44:20.832Z,50.27
2018-12-20T14:46:49.287Z,49.83
2018-12-20T14:49:17.736Z,47.20
2018-12-20T14:51:46.211Z,49.60
2018-12-20T14:54:14.839Z,47.77
2018-12-20T14:56:43.339Z,48.80
2018-12-20T14:59:11.826Z,49.63
2018-12-20T15:01:40.277Z,49.43
2018-12-20T15:04:08.733Z,53.77
2018-12-20T15:06:37.379Z,53.00
2018-12-20T15:09:07.077Z,51.73
2018-12-20T15:11:35.564Z,49.43
2018-12-20T15:14:04.659Z,48.23
2018-12-20T15:16:33.079Z,46.10
2018-12-20T15:19:01.533Z,47.77
2018-12-20T15:21:30.016Z,46.97
2018-12-20T15:23:58.467Z,47.37
2018-12-20T15:26:27.146Z,48.60
2018-12-20T15:28:55.951Z,45.90
2018-12-20T15:31:25.149Z,47.30
2018-12-20T15:33:53.606Z,46.20
2018-12-20T15:36:22.308Z,48.33
2018-12-20T15:38:50.767Z,46.00
2018-12-20T15:43:53.107Z,48.00
2018-12-20T15:46:22.317Z,47.57
2018-12-20T15:48:56.392Z,48.40
2018-12-20T15:51:25.545Z,47.77
2018-12-20T15:53:54.892Z,49.17
2018-12-20T15:56:23.369Z,48.83
2018-12-20T15:58:52.916Z,50.07
2018-12-20T16:01:21.440Z,115.40
2018-12-20T16:03:50.308Z,52.07
2018-12-20T16:06:18.887Z,49.37
2018-12-20T16:08:49.292Z,50.80
2018-12-20T16:11:18.140Z,52.20
2018-12-20T16:13:46.612Z,51.97
2018-12-20T16:16:15.176Z,51.23
2018-12-20T16:18:43.705Z,51.07
2018-12-20T16:23:45.872Z,52.83
2018-12-20T16:26:15.116Z,51.73
2018-12-20T16:28:43.587Z,51.13
2018-12-20T16:31:12.160Z,52.23
2018-12-20T16:33:40.831Z,55.63
2018-12-20T16:36:09.536Z,55.83
2018-12-20T16:38:39.077Z,55.27
2018-12-20T16:41:07.619Z,54.80
2018-12-20T16:43:36.747Z,53.63
2018-12-20T16:46:06.495Z,54.33
2018-12-20T16:48:36.196Z,53.17
2018-12-20T16:51:05.220Z,53.33
2018-12-20T16:53:39.774Z,56.67
2018-12-20T16:56:09.576Z,54.90
2018-12-20T16:58:38.072Z,58.70
2018-12-20T17:01:07.096Z,61.70
2018-12-20T17:03:38.759Z,60.17
2018-12-20T17:06:07.316Z,54.07
2018-12-20T17:08:35.959Z,66.33
2018-12-20T17:11:05.058Z,57.30
2018-12-20T17:13:35.163Z,57.83
2018-12-20T17:16:03.710Z,58.87
2018-12-20T17:18:32.410Z,61.17
2018-12-20T17:21:04.043Z,60.23
2018-12-20T17:23:35.738Z,57.77
2018-12-20T17:26:04.914Z,58.10
2018-12-20T17:28:33.951Z,57.23
2018-12-20T17:31:02.962Z,58.10
2018-12-20T17:33:31.710Z,59.97
2018-12-20T17:36:00.713Z,57.20
2018-12-20T17:38:30.035Z,56.40
2018-12-20T17:40:58.685Z,56.40
2018-12-20T17:43:27.526Z,57.67
2018-12-20T17:45:56.388Z,57.87
2018-12-20T17:48:29.066Z,57.57
2018-12-20T17:50:56.574Z,58.93
2018-12-20T17:53:26.133Z,57.33
2018-12-20T17:55:55.890Z,57.53
2018-12-20T17:58:25.132Z,56.37
2018-12-20T18:00:55.602Z,58.03
2018-12-20T18:03:24.970Z,57.80
2018-12-20T18:05:54.271Z,56.60
2018-12-20T18:08:22.942Z,59.77
2018-12-20T18:10:51.657Z,61.53
2018-12-20T18:13:20.300Z,62.33
2018-12-20T18:15:49.264Z,61.27
2018-12-20T18:18:19.337Z,61.10
2018-12-20T18:20:48.665Z,62.03
2018-12-20T18:23:18.179Z,60.63
2018-12-20T18:25:46.929Z,60.63
2018-12-20T18:28:16.562Z,61.37
2018-12-20T18:30:45.397Z,64.47
2018-12-20T18:33:14.055Z,63.10
2018-12-20T18:35:42.728Z,62.07
2018-12-20T18:38:11.286Z,62.27
2018-12-20T18:40:40.717Z,60.93
2018-12-20T18:43:09.375Z,59.90
2018-12-20T18:45:39.059Z,60.73
2018-12-20T18:48:07.721Z,61.13
2018-12-20T18:50:36.442Z,60.10
2018-12-20T18:53:05.843Z,60.53
2018-12-20T18:55:34.567Z,60.57
2018-12-20T18:58:03.147Z,62.43
2018-12-20T19:00:31.926Z,122.80
2018-12-20T19:03:00.496Z,70.10
2018-12-20T19:05:29.032Z,61.47
2018-12-20T19:07:58.551Z,60.97
2018-12-20T19:10:27.247Z,60.37
2018-12-20T19:12:56.040Z,60.43
2018-12-20T19:15:24.859Z,59.63
2018-12-20T19:17:54.707Z,59.40
2018-12-20T19:20:23.348Z,59.63
2018-12-20T19:22:55.070Z,60.57
2018-12-20T19:25:23.708Z,59.60
2018-12-20T19:27:52.431Z,59.33
2018-12-20T19:30:22.218Z,61.37
2018-12-20T19:32:51.357Z,60.00
2018-12-20T19:35:20.036Z,61.63
2018-12-20T19:37:49.137Z,62.67
2018-12-20T19:42:51.341Z,57.73
2018-12-20T19:45:24.365Z,58.07
2018-12-20T19:47:53.028Z,75.77
2018-12-20T19:50:22.364Z,58.47
2018-12-20T19:52:52.128Z,57.80
2018-12-20T19:55:21.095Z,58.47
2018-12-20T19:57:50.272Z,56.40
2018-12-20T20:00:19.287Z,58.80
2018-12-20T20:02:49.089Z,56.83
2018-12-20T20:07:53.390Z,56.50
2018-12-20T20:10:22.838Z,57.97
2018-12-20T20:12:52.799Z,57.57
2018-12-20T20:15:21.569Z,60.37
2018-12-20T20:17:53.593Z,59.90
2018-12-20T20:20:23.062Z,58.80
2018-12-20T20:22:52.111Z,58.53
2018-12-20T20:25:20.806Z,55.93
2018-12-20T20:27:50.476Z,56.20
2018-12-20T20:30:19.068Z,58.33
2018-12-20T20:32:48.017Z,57.43
2018-12-20T20:35:19.507Z,57.53
2018-12-20T20:37:48.186Z,57.30
2018-12-20T20:40:16.955Z,58.00
2018-12-20T20:42:48.133Z,59.30
2018-12-20T20:45:16.923Z,60.27
2018-12-20T20:47:45.547Z,60.33
2018-12-20T20:50:22.400Z,57.70
2018-12-20T20:52:46.978Z,59.23
2018-12-20T20:55:15.677Z,60.43
2018-12-20T20:57:44.485Z,60.23
2018-12-20T21:00:13.321Z,63.43
2018-12-20T21:02:42.350Z,63.97
2018-12-20T21:05:10.984Z,58.50
2018-12-20T21:07:39.605Z,63.13
2018-12-20T21:10:10.064Z,62.80
2018-12-20T21:12:39.329Z,64.43
2018-12-20T21:15:09.478Z,66.03
2018-12-20T21:17:38.076Z,63.63
2018-12-20T21:20:08.441Z,66.27
2018-12-20T21:22:37.069Z,65.87
2018-12-20T21:25:05.881Z,64.70
2018-12-20T21:27:34.711Z,62.03
2018-12-20T21:30:04.109Z,60.67
2018-12-20T21:32:32.715Z,63.17
2018-12-20T21:35:01.285Z,61.20
2018-12-20T21:37:29.961Z,62.67
2018-12-20T21:39:58.566Z,61.37
2018-12-20T21:42:27.097Z,60.53
2018-12-20T21:44:55.614Z,67.47
2018-12-20T21:47:24.216Z,65.10
2018-12-20T21:49:52.740Z,66.53
2018-12-20T21:52:21.253Z,64.47
2018-12-20T21:54:49.862Z,68.40
2018-12-20T21:57:18.368Z,74.47
2018-12-20T21:59:46.918Z,75.83
2018-12-20T22:02:15.452Z,76.63
2018-12-20T22:04:44.326Z,75.00
2018-12-20T22:07:12.831Z,69.50
2018-12-20T22:09:41.356Z,68.30
2018-12-20T22:12:09.805Z,68.83
2018-12-20T22:14:38.287Z,71.47
2018-12-20T22:17:06.763Z,71.70
2018-12-20T22:19:35.202Z,70.37
2018-12-20T22:22:03.640Z,71.40
2018-12-20T22:24:32.146Z,72.47
2018-12-20T22:27:00.617Z,72.93
2018-12-20T22:29:29.707Z,68.63
2018-12-20T22:31:58.165Z,66.10
2018-12-20T22:34:26.601Z,64.30
2018-12-20T22:36:55.046Z,66.07
2018-12-20T22:39:23.579Z,65.80
2018-12-20T22:41:52.023Z,66.07
2018-12-20T22:44:20.494Z,72.57
2018-12-20T22:46:49.190Z,67.87
2018-12-20T22:49:17.685Z,66.67
2018-12-20T22:51:46.133Z,69.17
2018-12-20T22:54:14.619Z,68.40
2018-12-20T22:56:43.076Z,64.17
2018-12-20T22:59:11.556Z,65.83
2018-12-20T23:01:40.036Z,64.40
2018-12-20T23:04:09.121Z,74.63
2018-12-20T23:06:37.554Z,67.97
2018-12-20T23:09:06.701Z,79.73
2018-12-20T23:11:35.643Z,78.07
2018-12-20T23:14:04.176Z,80.67
2018-12-20T23:16:32.686Z,76.07
2018-12-20T23:19:01.416Z,78.30
2018-12-20T23:21:29.886Z,78.73
2018-12-20T23:23:58.372Z,77.13
2018-12-20T23:26:26.856Z,72.57
2018-12-20T23:28:55.546Z,70.47
2018-12-20T23:31:24.017Z,72.47
2018-12-20T23:33:52.476Z,72.50
2018-12-20T23:36:21.175Z,76.63
2018-12-20T23:38:49.698Z,72.07
2018-12-20T23:41:18.134Z,71.00
2018-12-20T23:43:46.889Z,70.60
2018-12-20T23:46:15.409Z,63.90
2018-12-20T23:48:43.891Z,64.70
2018-12-20T23:51:13.761Z,67.47
2018-12-20T23:53:48.600Z,69.03
2018-12-20T23:56:17.287Z,75.30
2018-12-20T23:58:45.737Z,67.33
